Time,TemperatureF,DewpointF,PressureIn,WindDirection,WindDirectionDegrees,WindSpeedMPH,WindSpeedGustMPH,Humidity,HourlyPrecipIn,Conditions,Clouds,dailyrainin,SoftwareType,DateUTC
2013-01-20 00:00:00,6.6,3.3,30.75,West,269,2.0,3.0,86,0.00,,,0.00,Wunderground v.1.15,2013-01-20 07:00:00,
2013-01-20 00:05:00,6.4,2.9,30.75,West,269,2.0,3.0,85,0.00,,,0.00,Wunderground v.1.15,2013-01-20 07:05:00,
2013-01-20 00:15:00,6.0,2.5,30.75,West,269,2.0,2.0,85,0.00,,,0.00,Wunderground v.1.15,2013-01-20 07:15:00,
2013-01-20 00:20:00,5.1,1.3,30.75,West,269,1.0,1.0,84,0.00,,,0.00,Wunderground v.1.15,2013-01-20 07:20:00,
2013-01-20 00:30:00,4.5,0.7,30.75,West,269,1.0,1.0,84,0.00,,,0.00,Wunderground v.1.15,2013-01-20 07:30:00,
2013-01-20 00:35:00,4.2,0.4,30.75,West,269,1.0,2.0,84,0.00,,,0.00,Wunderground v.1.15,2013-01-20 07:35:00,
2013-01-20 00:40:00,4.7,1.4,30.75,West,269,1.0,3.0,86,0.00,,,0.00,Wunderground v.1.15,2013-01-20 07:40:00,
2013-01-20 00:45:00,3.9,0.1,30.75,West,269,2.0,3.0,84,0.00,,,0.00,Wunderground v.1.15,2013-01-20 07:45:00,
2013-01-20 00:55:00,4.9,1.6,30.76,West,269,2.0,3.0,86,0.00,,,0.00,Wunderground v.1.15,2013-01-20 07:55:00,
2013-01-20 01:00:00,5.4,2.1,30.76,West,269,2.0,3.0,86,0.00,,,0.00,Wunderground v.1.15,2013-01-20 08:00:00,
2013-01-20 01:05:00,5.5,2.2,30.75,West,269,2.0,3.0,86,0.00,,,0.00,Wunderground v.1.15,2013-01-20 08:05:00,
2013-01-20 01:15:00,5.5,2.0,30.75,West,269,2.0,3.0,85,0.00,,,0.00,Wunderground v.1.15,2013-01-20 08:15:00,
2013-01-20 01:20:00,5.6,2.1,30.75,West,269,2.0,3.0,85,0.00,,,0.00,Wunderground v.1.15,2013-01-20 08:20:00,
2013-01-20 01:30:00,5.5,2.0,30.75,West,269,2.0,3.0,85,0.00,,,0.00,Wunderground v.1.15,2013-01-20 08:30:00,
2013-01-20 01:35:00,5.2,1.4,30.75,West,269,2.0,3.0,84,0.00,,,0.00,Wunderground v.1.15,2013-01-20 08:35:00,
2013-01-20 01:40:00,5.5,2.0,30.75,West,269,2.0,2.0,85,0.00,,,0.00,Wunderground v.1.15,2013-01-20 08:40:00,
2013-01-20 01:45:00,5.6,2.1,30.76,West,269,1.0,3.0,85,0.00,,,0.00,Wunderground v.1.15,2013-01-20 08:45:00,
2013-01-20 01:55:00,5.8,2.3,30.76,West,269,1.0,3.0,85,0.00,,,0.00,Wunderground v.1.15,2013-01-20 08:55:00,
2013-01-20 02:00:00,5.6,2.1,30.76,West,269,2.0,2.0,85,0.00,,,0.00,Wunderground v.1.15,2013-01-20 09:00:00,
2013-01-20 02:05:00,5.1,1.3,30.76,West,269,2.0,3.0,84,0.00,,,0.00,Wunderground v.1.15,2013-01-20 09:05:00,
2013-01-20 02:15:00,4.5,0.5,30.76,West,269,1.0,3.0,83,0.00,,,0.00,Wunderground v.1.15,2013-01-20 09:15:00,
2013-01-20 02:20:00,3.8,-0.2,30.76,West,269,0.0,3.0,83,0.00,,,0.00,Wunderground v.1.15,2013-01-20 09:20:00,
2013-01-20 02:25:00,3.3,-0.7,30.76,West,269,0.0,3.0,83,0.00,,,0.00,Wunderground v.1.15,2013-01-20 09:25:00,
2013-01-20 02:30:00,2.9,-1.1,30.76,West,269,1.0,3.0,83,0.00,,,0.00,Wunderground v.1.15,2013-01-20 09:30:00,
2013-01-20 02:40:00,2.5,-1.5,30.76,West,269,1.0,3.0,83,0.00,,,0.00,Wunderground v.1.15,2013-01-20 09:40:00,
2013-01-20 02:45:00,1.9,-2.1,30.75,West,269,1.0,3.0,83,0.00,,,0.00,Wunderground v.1.15,2013-01-20 09:45:00,
2013-01-20 02:50:00,2.4,-1.1,30.75,West,269,1.0,3.0,85,0.00,,,0.00,Wunderground v.1.15,2013-01-20 09:50:00,
2013-01-20 03:00:00,3.8,0.3,30.76,West,269,1.0,3.0,85,0.00,,,0.00,Wunderground v.1.15,2013-01-20 10:00:00,
2013-01-20 03:05:00,2.8,-1.2,30.76,West,269,1.0,3.0,83,0.00,,,0.00,Wunderground v.1.15,2013-01-20 10:05:00,
2013-01-20 03:10:00,3.5,0.0,30.75,West,269,1.0,3.0,85,0.00,,,0.00,Wunderground v.1.15,2013-01-20 10:10:00,
2013-01-20 03:20:00,4.5,1.2,30.75,West,269,1.0,1.0,86,0.00,,,0.00,Wunderground v.1.15,2013-01-20 10:20:00,
2013-01-20 03:25:00,4.4,0.9,30.75,West,269,1.0,3.0,85,0.00,,,0.00,Wunderground v.1.15,2013-01-20 10:25:00,
2013-01-20 03:30:00,3.7,-0.3,30.75,West,269,1.0,3.0,83,0.00,,,0.00,Wunderground v.1.15,2013-01-20 10:30:00,
2013-01-20 03:35:00,2.6,-1.4,30.75,West,269,1.0,3.0,83,0.00,,,0.00,Wunderground v.1.15,2013-01-20 10:35:00,
2013-01-20 03:45:00,2.8,-0.7,30.74,West,269,2.0,3.0,85,0.00,,,0.00,Wunderground v.1.15,2013-01-20 10:45:00,
2013-01-20 03:50:00,2.8,-0.9,30.74,West,269,2.0,3.0,84,0.00,,,0.00,Wunderground v.1.15,2013-01-20 10:50:00,
2013-01-20 03:55:00,2.3,-1.7,30.74,West,269,1.0,3.0,83,0.00,,,0.00,Wunderground v.1.15,2013-01-20 10:55:00,
2013-01-20 04:05:00,3.3,-0.2,30.73,West,269,1.0,3.0,85,0.00,,,0.00,Wunderground v.1.15,2013-01-20 11:05:00,
2013-01-20 04:10:00,2.8,-0.9,30.74,West,269,1.0,3.0,84,0.00,,,0.00,Wunderground v.1.15,2013-01-20 11:10:00,
2013-01-20 04:15:00,2.4,-1.6,30.73,West,269,1.0,3.0,83,0.00,,,0.00,Wunderground v.1.15,2013-01-20 11:15:00,
2013-01-20 04:25:00,2.9,-0.6,30.73,West,269,2.0,3.0,85,0.00,,,0.00,Wunderground v.1.15,2013-01-20 11:25:00,
2013-01-20 04:30:00,3.7,0.2,30.73,West,269,2.0,2.0,85,0.00,,,0.00,Wunderground v.1.15,2013-01-20 11:30:00,
2013-01-20 04:35:00,2.5,-1.5,30.73,West,269,1.0,3.0,83,0.00,,,0.00,Wunderground v.1.15,2013-01-20 11:35:00,
2013-01-20 04:45:00,2.3,-1.4,30.73,West,269,1.0,3.0,84,0.00,,,0.00,Wunderground v.1.15,2013-01-20 11:45:00,
2013-01-20 04:50:00,1.7,-2.3,30.73,West,269,1.0,3.0,83,0.00,,,0.00,Wunderground v.1.15,2013-01-20 11:50:00,
2013-01-20 04:55:00,1.5,-2.5,30.73,West,269,1.0,3.0,83,0.00,,,0.00,Wunderground v.1.15,2013-01-20 11:55:00,
2013-01-20 05:05:00,3.3,0.1,30.73,West,269,1.0,3.0,86,0.00,,,0.00,Wunderground v.1.15,2013-01-20 12:05:00,
2013-01-20 05:10:00,3.3,-0.2,30.73,West,269,0.0,3.0,85,0.00,,,0.00,Wunderground v.1.15,2013-01-20 12:10:00,
2013-01-20 05:15:00,2.8,-0.9,30.73,West,269,0.0,3.0,84,0.00,,,0.00,Wunderground v.1.15,2013-01-20 12:15:00,
2013-01-20 05:25:00,1.1,-3.1,30.73,West,269,1.0,3.0,82,0.00,,,0.00,Wunderground v.1.15,2013-01-20 12:25:00,
2013-01-20 05:30:00,1.1,-2.9,30.73,West,269,1.0,3.0,83,0.00,,,0.00,Wunderground v.1.15,2013-01-20 12:30:00,
2013-01-20 05:35:00,0.8,-3.2,30.73,West,269,1.0,3.0,83,0.00,,,0.00,Wunderground v.1.15,2013-01-20 12:35:00,
2013-01-20 05:45:00,1.6,-1.9,30.73,West,269,1.0,3.0,85,0.00,,,0.00,Wunderground v.1.15,2013-01-20 12:45:00,
2013-01-20 05:50:00,1.7,-2.0,30.73,West,269,1.0,3.0,84,0.00,,,0.00,Wunderground v.1.15,2013-01-20 12:50:00,
2013-01-20 05:55:00,0.6,-3.6,30.73,West,269,1.0,3.0,82,0.00,,,0.00,Wunderground v.1.15,2013-01-20 12:55:00,
2013-01-20 06:05:00,1.4,-2.3,30.73,West,269,1.0,3.0,84,0.00,,,0.00,Wunderground v.1.15,2013-01-20 13:05:00,
2013-01-20 06:10:00,1.0,-3.0,30.73,West,269,1.0,3.0,83,0.00,,,0.00,Wunderground v.1.15,2013-01-20 13:10:00,
2013-01-20 06:15:00,1.5,-2.2,30.73,West,269,1.0,3.0,84,0.00,,,0.00,Wunderground v.1.15,2013-01-20 13:15:00,
2013-01-20 06:20:00,2.6,-0.9,30.73,West,269,2.0,2.0,85,0.00,,,0.00,Wunderground v.1.15,2013-01-20 13:20:00,
2013-01-20 06:30:00,1.7,-2.3,30.73,West,269,1.0,1.0,83,0.00,,,0.00,Wunderground v.1.15,2013-01-20 13:30:00,
2013-01-20 06:35:00,1.3,-2.7,30.73,West,269,1.0,3.0,83,0.00,,,0.00,Wunderground v.1.15,2013-01-20 13:35:00,
2013-01-20 06:40:00,1.7,-2.0,30.72,West,269,0.0,3.0,84,0.00,,,0.00,Wunderground v.1.15,2013-01-20 13:40:00,
2013-01-20 06:45:00,1.0,-3.0,30.73,West,269,0.0,3.0,83,0.00,,,0.00,Wunderground v.1.15,2013-01-20 13:45:00,
2013-01-20 06:55:00,0.1,-3.8,30.72,West,269,1.0,3.0,83,0.00,,,0.00,Wunderground v.1.15,2013-01-20 13:55:00,
2013-01-20 07:00:00,0.9,-2.8,30.73,West,269,1.0,1.0,84,0.00,,,0.00,Wunderground v.1.15,2013-01-20 14:00:00,
2013-01-20 07:10:00,0.6,-3.1,30.72,West,269,1.0,1.0,84,0.00,,,0.00,Wunderground v.1.15,2013-01-20 14:10:00,
2013-01-20 07:15:00,0.2,-3.7,30.72,West,269,1.0,2.0,83,0.00,,,0.00,Wunderground v.1.15,2013-01-20 14:15:00,
2013-01-20 07:20:00,-0.4,-4.6,30.72,West,269,1.0,3.0,82,0.00,,,0.00,Wunderground v.1.15,2013-01-20 14:20:00,
2013-01-20 07:25:00,-0.6,-4.5,30.72,West,269,1.0,3.0,83,0.00,,,0.00,Wunderground v.1.15,2013-01-20 14:25:00,
2013-01-20 07:35:00,0.0,-3.9,30.72,West,269,1.0,3.0,83,0.00,,,0.00,Wunderground v.1.15,2013-01-20 14:35:00,
2013-01-20 07:40:00,-0.3,-4.2,30.72,West,269,1.0,3.0,83,0.00,,,0.00,Wunderground v.1.15,2013-01-20 14:40:00,
2013-01-20 07:45:00,0.0,-3.9,30.72,West,269,1.0,3.0,83,0.00,,,0.00,Wunderground v.1.15,2013-01-20 14:45:00,
2013-01-20 07:55:00,3.1,-0.4,30.72,West,269,1.0,3.0,85,0.00,,,0.00,Wunderground v.1.15,2013-01-20 14:55:00,
2013-01-20 08:00:00,2.7,-1.3,30.71,West,269,0.0,3.0,83,0.00,,,0.00,Wunderground v.1.15,2013-01-20 15:00:00,
2013-01-20 08:05:00,2.8,-1.2,30.71,West,269,0.0,3.0,83,0.00,,,0.00,Wunderground v.1.15,2013-01-20 15:05:00,
2013-01-20 08:15:00,4.9,1.4,30.71,West,269,1.0,3.0,85,0.00,,,0.00,Wunderground v.1.15,2013-01-20 15:15:00,
2013-01-20 08:20:00,5.7,2.2,30.71,West,269,0.0,3.0,85,0.00,,,0.00,Wunderground v.1.15,2013-01-20 15:20:00,
2013-01-20 08:30:00,6.6,2.8,30.72,West,269,0.0,3.0,84,0.00,,,0.00,Wunderground v.1.15,2013-01-20 15:30:00,
2013-01-20 08:35:00,7.6,4.0,30.72,West,269,0.0,3.0,85,0.00,,,0.00,Wunderground v.1.15,2013-01-20 15:35:00,
2013-01-20 08:40:00,8.9,5.6,30.72,West,269,0.0,3.0,86,0.00,,,0.00,Wunderground v.1.15,2013-01-20 15:40:00,
2013-01-20 08:50:00,10.3,6.7,30.72,West,269,0.0,3.0,85,0.00,,,0.00,Wunderground v.1.15,2013-01-20 15:50:00,
2013-01-20 08:55:00,11.6,8.2,30.72,West,269,0.0,3.0,86,0.00,,,0.00,Wunderground v.1.15,2013-01-20 15:55:00,
2013-01-20 09:00:00,13.7,10.5,30.72,West,269,0.0,3.0,87,0.00,,,0.00,Wunderground v.1.15,2013-01-20 16:00:00,
2013-01-20 09:10:00,13.9,10.0,30.72,West,269,0.0,3.0,84,0.00,,,0.00,Wunderground v.1.15,2013-01-20 16:10:00,
2013-01-20 09:15:00,14.1,10.2,30.72,West,269,0.0,3.0,84,0.00,,,0.00,Wunderground v.1.15,2013-01-20 16:15:00,
2013-01-20 09:20:00,14.8,11.1,30.72,West,269,0.0,3.0,85,0.00,,,0.00,Wunderground v.1.15,2013-01-20 16:20:00,
2013-01-20 09:25:00,15.5,11.5,30.72,West,269,0.0,3.0,84,0.00,,,0.00,Wunderground v.1.15,2013-01-20 16:25:00,
2013-01-20 09:35:00,19.2,14.9,30.72,West,269,0.0,3.0,83,0.00,,,0.00,Wunderground v.1.15,2013-01-20 16:35:00,
2013-01-20 09:40:00,21.1,15.3,30.71,West,269,0.0,3.0,78,0.00,,,0.00,Wunderground v.1.15,2013-01-20 16:40:00,
2013-01-20 09:45:00,22.2,15.5,30.72,West,269,0.0,3.0,75,0.00,,,0.00,Wunderground v.1.15,2013-01-20 16:45:00,
2013-01-20 09:50:00,23.0,15.9,30.71,West,269,1.0,3.0,74,0.00,,,0.00,Wunderground v.1.15,2013-01-20 16:50:00,
2013-01-20 10:00:00,23.1,12.7,30.71,NE,45,2.0,4.0,64,0.00,,,0.00,Wunderground v.1.15,2013-01-20 17:00:00,
2013-01-20 10:05:00,22.7,11.6,30.70,NE,50,3.0,4.0,62,0.00,,,0.00,Wunderground v.1.15,2013-01-20 17:05:00,
2013-01-20 10:15:00,23.7,11.4,30.70,ESE,106,2.0,3.0,59,0.00,,,0.00,Wunderground v.1.15,2013-01-20 17:15:00,
2013-01-20 10:20:00,24.6,11.9,30.70,ESE,106,3.0,3.0,58,0.00,,,0.00,Wunderground v.1.15,2013-01-20 17:20:00,
2013-01-20 10:25:00,25.4,12.3,30.69,ESE,105,2.0,3.0,57,0.00,,,0.00,Wunderground v.1.15,2013-01-20 17:25:00,
2013-01-20 10:35:00,27.7,12.8,30.69,ESE,106,1.0,2.0,53,0.00,,,0.00,Wunderground v.1.15,2013-01-20 17:35:00,
2013-01-20 10:40:00,29.5,14.9,30.68,West,273,1.0,3.0,54,0.00,,,0.00,Wunderground v.1.15,2013-01-20 17:40:00,
2013-01-20 10:45:00,31.7,14.7,30.68,West,267,2.0,3.0,49,0.00,,,0.00,Wunderground v.1.15,2013-01-20 17:45:00,
2013-01-20 10:55:00,33.8,15.7,30.68,WNW,286,4.0,4.0,47,0.00,,,0.00,Wunderground v.1.15,2013-01-20 17:55:00,
2013-01-20 11:00:00,34.1,14.9,30.67,West,279,5.0,5.0,45,0.00,,,0.00,Wunderground v.1.15,2013-01-20 18:00:00,
2013-01-20 11:05:00,33.9,14.8,30.67,West,278,7.0,7.0,45,0.00,,,0.01,Wunderground v.1.15,2013-01-20 18:05:00,
2013-01-20 11:10:00,33.5,12.3,30.67,West,273,10.0,13.0,41,0.00,,,0.01,Wunderground v.1.15,2013-01-20 18:10:00,
2013-01-20 11:20:00,33.4,12.2,30.67,West,275,12.0,14.0,41,0.00,,,0.01,Wunderground v.1.15,2013-01-20 18:20:00,
2013-01-20 11:25:00,33.4,12.2,30.66,West,273,13.0,14.0,41,0.00,,,0.01,Wunderground v.1.15,2013-01-20 18:25:00,
2013-01-20 11:35:00,33.2,12.6,30.66,WNW,288,13.0,13.0,42,0.00,,,0.01,Wunderground v.1.15,2013-01-20 18:35:00,
2013-01-20 11:40:00,33.3,13.2,30.65,West,273,13.0,16.0,43,0.00,,,0.01,Wunderground v.1.15,2013-01-20 18:40:00,
2013-01-20 11:45:00,33.5,13.9,30.64,West,276,13.0,16.0,44,0.00,,,0.01,Wunderground v.1.15,2013-01-20 18:45:00,
2013-01-20 11:50:00,33.5,13.9,30.64,WNW,293,13.0,13.0,44,0.00,,,0.01,Wunderground v.1.15,2013-01-20 18:50:00,
2013-01-20 12:00:00,34.2,14.0,30.63,West,264,12.0,13.0,43,0.00,,,0.01,Wunderground v.1.15,2013-01-20 19:00:00,
2013-01-20 12:05:00,34.0,12.7,30.62,West,280,12.0,13.0,41,0.00,,,0.01,Wunderground v.1.15,2013-01-20 19:05:00,
2013-01-20 12:15:00,33.9,14.8,30.61,West,267,14.0,14.0,45,0.00,,,0.01,Wunderground v.1.15,2013-01-20 19:15:00,
2013-01-20 12:20:00,34.2,15.5,30.61,West,274,14.0,14.0,46,0.00,,,0.01,Wunderground v.1.15,2013-01-20 19:20:00,
2013-01-20 12:25:00,34.3,16.1,30.61,West,269,14.0,14.0,47,0.00,,,0.01,Wunderground v.1.15,2013-01-20 19:25:00,
2013-01-20 12:30:00,34.3,16.1,30.61,West,275,14.0,14.0,47,0.00,,,0.01,Wunderground v.1.15,2013-01-20 19:30:00,
2013-01-20 12:40:00,34.4,15.7,30.60,West,261,14.0,16.0,46,0.00,,,0.01,Wunderground v.1.15,2013-01-20 19:40:00,
2013-01-20 12:45:00,34.4,16.7,30.60,West,267,14.0,16.0,48,0.00,,,0.01,Wunderground v.1.15,2013-01-20 19:45:00,
2013-01-20 12:50:00,34.8,16.1,30.60,WNW,285,14.0,14.0,46,0.00,,,0.01,Wunderground v.1.15,2013-01-20 19:50:00,
2013-01-20 12:55:00,35.1,16.9,30.59,West,259,13.0,17.0,47,0.00,,,0.01,Wunderground v.1.15,2013-01-20 19:55:00,
2013-01-20 13:05:00,35.0,16.3,30.58,West,268,14.0,16.0,46,0.00,,,0.01,Wunderground v.1.15,2013-01-20 20:05:00,
2013-01-20 13:10:00,35.2,16.5,30.58,West,280,14.0,14.0,46,0.00,,,0.01,Wunderground v.1.15,2013-01-20 20:10:00,
2013-01-20 13:20:00,35.3,15.5,30.58,West,265,13.0,13.0,44,0.00,,,0.01,Wunderground v.1.15,2013-01-20 20:20:00,
2013-01-20 13:25:00,35.2,16.0,30.58,WNW,282,13.0,13.0,45,0.00,,,0.01,Wunderground v.1.15,2013-01-20 20:25:00,
2013-01-20 13:30:00,35.2,16.0,30.58,West,269,13.0,13.0,45,0.00,,,0.01,Wunderground v.1.15,2013-01-20 20:30:00,
2013-01-20 13:35:00,35.2,16.5,30.58,WNW,298,13.0,13.0,46,0.00,,,0.01,Wunderground v.1.15,2013-01-20 20:35:00,
2013-01-20 13:45:00,35.4,17.1,30.58,West,261,12.0,13.0,47,0.00,,,0.01,Wunderground v.1.15,2013-01-20 20:45:00,
2013-01-20 13:50:00,35.5,16.7,30.58,West,276,11.0,12.0,46,0.00,,,0.01,Wunderground v.1.15,2013-01-20 20:50:00,
2013-01-20 13:55:00,35.2,16.5,30.57,WNW,293,12.0,13.0,46,0.00,,,0.01,Wunderground v.1.15,2013-01-20 20:55:00,
2013-01-20 14:05:00,35.1,16.9,30.58,West,265,12.0,15.0,47,0.00,,,0.01,Wunderground v.1.15,2013-01-20 21:05:00,
2013-01-20 14:10:00,35.2,16.5,30.58,West,267,12.0,13.0,46,0.00,,,0.01,Wunderground v.1.15,2013-01-20 21:10:00,
2013-01-20 14:15:00,35.3,17.1,30.58,WNW,296,12.0,13.0,47,0.00,,,0.01,Wunderground v.1.15,2013-01-20 21:15:00,
2013-01-20 14:20:00,35.3,17.1,30.58,West,281,11.0,11.0,47,0.00,,,0.01,Wunderground v.1.15,2013-01-20 21:20:00,
2013-01-20 14:30:00,35.3,17.1,30.58,West,272,9.0,13.0,47,0.00,,,0.01,Wunderground v.1.15,2013-01-20 21:30:00,
2013-01-20 14:35:00,35.3,17.1,30.58,West,260,9.0,13.0,47,0.00,,,0.01,Wunderground v.1.15,2013-01-20 21:35:00,
2013-01-20 14:40:00,35.7,17.4,30.58,NW,304,8.0,8.0,47,0.00,,,0.01,Wunderground v.1.15,2013-01-20 21:40:00,
2013-01-20 14:50:00,35.8,17.0,30.58,WNW,296,8.0,9.0,46,0.00,,,0.01,Wunderground v.1.15,2013-01-20 21:50:00,
2013-01-20 14:55:00,35.6,17.8,30.58,West,274,9.0,9.0,48,0.00,,,0.01,Wunderground v.1.15,2013-01-20 21:55:00,
2013-01-20 15:05:00,35.5,17.7,30.58,WNW,283,9.0,15.0,48,0.00,,,0.01,Wunderground v.1.15,2013-01-20 22:05:00,
2013-01-20 15:10:00,35.5,16.7,30.57,West,263,8.0,8.0,46,0.00,,,0.01,Wunderground v.1.15,2013-01-20 22:10:00,
2013-01-20 15:15:00,35.4,17.6,30.58,West,266,8.0,8.0,48,0.00,,,0.01,Wunderground v.1.15,2013-01-20 22:15:00,
2013-01-20 15:20:00,35.5,17.2,30.58,WNW,284,9.0,9.0,47,0.00,,,0.01,Wunderground v.1.15,2013-01-20 22:20:00,
2013-01-20 15:30:00,35.1,17.4,30.57,West,273,11.0,12.0,48,0.00,,,0.01,Wunderground v.1.15,2013-01-20 22:30:00,
2013-01-20 15:35:00,35.0,17.3,30.57,WNW,289,12.0,12.0,48,0.00,,,0.01,Wunderground v.1.15,2013-01-20 22:35:00,
2013-01-20 15:40:00,34.9,17.2,30.57,WNW,296,13.0,13.0,48,0.00,,,0.01,Wunderground v.1.15,2013-01-20 22:40:00,
2013-01-20 15:50:00,34.8,17.6,30.57,WNW,292,11.0,13.0,49,0.00,,,0.01,Wunderground v.1.15,2013-01-20 22:50:00,
2013-01-20 15:55:00,34.9,17.7,30.57,West,265,11.0,13.0,49,0.00,,,0.01,Wunderground v.1.15,2013-01-20 22:55:00,
2013-01-20 16:00:00,34.9,17.2,30.57,West,268,11.0,12.0,48,0.00,,,0.01,Wunderground v.1.15,2013-01-20 23:00:00,
2013-01-20 16:10:00,34.8,17.6,30.57,West,271,11.0,12.0,49,0.00,,,0.01,Wunderground v.1.15,2013-01-20 23:10:00,
2013-01-20 16:15:00,34.7,17.5,30.57,West,273,12.0,12.0,49,0.00,,,0.01,Wunderground v.1.15,2013-01-20 23:15:00,
2013-01-20 16:20:00,34.4,17.7,30.57,West,273,12.0,14.0,50,0.00,,,0.01,Wunderground v.1.15,2013-01-20 23:20:00,
2013-01-20 16:30:00,34.4,17.7,30.57,West,277,12.0,12.0,50,0.00,,,0.01,Wunderground v.1.15,2013-01-20 23:30:00,
2013-01-20 16:35:00,34.4,18.1,30.57,West,267,11.0,12.0,51,0.00,,,0.01,Wunderground v.1.15,2013-01-20 23:35:00,
2013-01-20 16:40:00,34.2,17.9,30.58,West,260,11.0,11.0,51,0.00,,,0.01,Wunderground v.1.15,2013-01-20 23:40:00,
2013-01-20 16:45:00,34.1,17.4,30.58,West,279,9.0,11.0,50,0.00,,,0.01,Wunderground v.1.15,2013-01-20 23:45:00,
2013-01-20 16:55:00,33.3,17.5,30.58,WNW,284,6.0,8.0,52,0.00,,,0.01,Wunderground v.1.15,2013-01-20 23:55:00,
2013-01-20 17:00:00,32.8,17.1,30.59,WNW,295,4.0,4.0,52,0.00,,,0.01,Wunderground v.1.15,2013-01-21 00:00:00,
2013-01-20 17:10:00,31.7,16.5,30.58,West,275,3.0,3.0,53,0.00,,,0.01,Wunderground v.1.15,2013-01-21 00:10:00,
2013-01-20 17:15:00,31.0,16.3,30.59,West,275,2.0,3.0,54,0.00,,,0.01,Wunderground v.1.15,2013-01-21 00:15:00,
2013-01-20 17:20:00,30.2,16.0,30.59,West,275,1.0,1.0,55,0.00,,,0.01,Wunderground v.1.15,2013-01-21 00:20:00,
2013-01-20 17:25:00,29.2,15.4,30.59,West,275,0.0,3.0,56,0.00,,,0.01,Wunderground v.1.15,2013-01-21 00:25:00,
2013-01-20 17:35:00,26.9,14.5,30.59,West,275,0.0,3.0,59,0.00,,,0.01,Wunderground v.1.15,2013-01-21 00:35:00,
2013-01-20 17:40:00,24.7,12.8,30.59,West,275,1.0,3.0,60,0.00,,,0.01,Wunderground v.1.15,2013-01-21 00:40:00,
2013-01-20 17:45:00,22.0,11.3,30.60,West,275,2.0,3.0,63,0.00,,,0.01,Wunderground v.1.15,2013-01-21 00:45:00,
2013-01-20 17:55:00,20.3,12.4,30.60,West,275,2.0,3.0,71,0.00,,,0.01,Wunderground v.1.15,2013-01-21 00:55:00,
2013-01-20 18:00:00,19.9,11.7,30.60,West,275,2.0,2.0,70,0.00,,,0.01,Wunderground v.1.15,2013-01-21 01:00:00,
2013-01-20 18:05:00,19.7,12.4,30.60,West,275,1.0,3.0,73,0.00,,,0.01,Wunderground v.1.15,2013-01-21 01:05:00,
2013-01-20 18:15:00,19.1,11.9,30.60,West,275,1.0,3.0,73,0.00,,,0.01,Wunderground v.1.15,2013-01-21 01:15:00,
2013-01-20 18:20:00,18.5,11.0,30.60,West,275,0.0,3.0,72,0.00,,,0.01,Wunderground v.1.15,2013-01-21 01:20:00,
2013-01-20 18:25:00,18.0,10.5,30.60,West,275,0.0,3.0,72,0.00,,,0.01,Wunderground v.1.15,2013-01-21 01:25:00,
2013-01-20 18:30:00,17.9,11.3,30.60,West,275,2.0,2.0,75,0.00,,,0.01,Wunderground v.1.15,2013-01-21 01:30:00,
2013-01-20 18:40:00,17.2,10.6,30.61,West,275,2.0,3.0,75,0.00,,,0.01,Wunderground v.1.15,2013-01-21 01:40:00,
2013-01-20 18:45:00,17.4,11.1,30.61,West,275,2.0,3.0,76,0.00,,,0.01,Wunderground v.1.15,2013-01-21 01:45:00,
2013-01-20 18:50:00,16.6,10.3,30.61,West,275,3.0,3.0,76,0.00,,,0.01,Wunderground v.1.15,2013-01-21 01:50:00,
2013-01-20 19:00:00,17.2,11.8,30.61,West,275,3.0,3.0,79,0.00,,,0.01,Wunderground v.1.15,2013-01-21 02:00:00,
2013-01-20 19:05:00,17.4,11.7,30.62,West,275,2.0,3.0,78,0.00,,,0.01,Wunderground v.1.15,2013-01-21 02:05:00,
2013-01-20 19:10:00,15.8,8.7,30.62,West,275,1.0,4.0,73,0.00,,,0.01,Wunderground v.1.15,2013-01-21 02:10:00,
2013-01-20 19:20:00,15.3,10.2,30.62,West,275,3.0,3.0,80,0.00,,,0.01,Wunderground v.1.15,2013-01-21 02:20:00,
2013-01-20 19:25:00,15.2,10.1,30.62,West,275,2.0,3.0,80,0.00,,,0.01,Wunderground v.1.15,2013-01-21 02:25:00,
2013-01-20 19:30:00,14.8,9.7,30.62,West,275,2.0,3.0,80,0.00,,,0.01,Wunderground v.1.15,2013-01-21 02:30:00,
2013-01-20 19:35:00,15.6,11.1,30.62,West,275,3.0,4.0,82,0.00,,,0.01,Wunderground v.1.15,2013-01-21 02:35:00,
2013-01-20 19:45:00,15.3,10.2,30.62,West,275,3.0,3.0,80,0.00,,,0.01,Wunderground v.1.15,2013-01-21 02:45:00,
2013-01-20 19:50:00,14.9,9.8,30.62,West,275,2.0,2.0,80,0.00,,,0.01,Wunderground v.1.15,2013-01-21 02:50:00,
2013-01-20 20:00:00,13.8,9.0,30.62,West,275,2.0,3.0,81,0.00,,,0.01,Wunderground v.1.15,2013-01-21 03:00:00,
2013-01-20 20:05:00,13.0,8.0,30.62,West,275,2.0,3.0,80,0.00,,,0.01,Wunderground v.1.15,2013-01-21 03:05:00,
2013-01-20 20:10:00,13.0,8.5,30.62,West,275,1.0,3.0,82,0.00,,,0.01,Wunderground v.1.15,2013-01-21 03:10:00,
2013-01-20 20:15:00,12.9,8.7,30.62,West,275,1.0,3.0,83,0.00,,,0.01,Wunderground v.1.15,2013-01-21 03:15:00,
2013-01-20 20:25:00,12.5,7.8,30.62,West,275,0.0,3.0,81,0.00,,,0.01,Wunderground v.1.15,2013-01-21 03:25:00,
2013-01-20 20:30:00,11.8,7.4,30.63,West,275,0.0,3.0,82,0.00,,,0.01,Wunderground v.1.15,2013-01-21 03:30:00,
2013-01-20 20:40:00,10.6,6.2,30.63,West,275,2.0,3.0,82,0.00,,,0.01,Wunderground v.1.15,2013-01-21 03:40:00,
2013-01-20 20:45:00,10.6,6.7,30.63,West,275,2.0,3.0,84,0.00,,,0.01,Wunderground v.1.15,2013-01-21 03:45:00,
2013-01-20 20:50:00,10.8,6.9,30.63,West,275,1.0,3.0,84,0.00,,,0.01,Wunderground v.1.15,2013-01-21 03:50:00,
2013-01-20 20:55:00,10.8,6.9,30.63,West,275,2.0,3.0,84,0.00,,,0.01,Wunderground v.1.15,2013-01-21 03:55:00,
2013-01-20 21:05:00,12.1,8.7,30.63,West,275,1.0,3.0,86,0.00,,,0.01,Wunderground v.1.15,2013-01-21 04:05:00,
2013-01-20 21:15:00,11.6,8.0,30.63,West,275,2.0,3.0,85,0.00,,,0.01,Wunderground v.1.15,2013-01-21 04:15:00,
2013-01-20 21:20:00,11.9,8.5,30.63,West,275,1.0,3.0,86,0.00,,,0.01,Wunderground v.1.15,2013-01-21 04:20:00,
2013-01-20 21:25:00,11.3,7.4,30.63,West,275,1.0,3.0,84,0.00,,,0.01,Wunderground v.1.15,2013-01-21 04:25:00,
2013-01-20 21:30:00,10.7,6.6,30.63,West,275,1.0,1.0,83,0.00,,,0.01,Wunderground v.1.15,2013-01-21 04:30:00,
2013-01-20 21:40:00,8.8,4.7,30.63,West,275,1.0,3.0,83,0.00,,,0.01,Wunderground v.1.15,2013-01-21 04:40:00,
2013-01-20 21:45:00,8.6,4.8,30.63,West,275,2.0,3.0,84,0.00,,,0.01,Wunderground v.1.15,2013-01-21 04:45:00,
2013-01-20 21:50:00,8.5,4.7,30.64,West,275,1.0,3.0,84,0.00,,,0.01,Wunderground v.1.15,2013-01-21 04:50:00,
2013-01-20 22:00:00,9.0,5.7,30.64,West,275,2.0,2.0,86,0.00,,,0.01,Wunderground v.1.15,2013-01-21 05:00:00,
2013-01-20 22:05:00,9.1,5.8,30.65,West,275,1.0,3.0,86,0.00,,,0.01,Wunderground v.1.15,2013-01-21 05:05:00,
2013-01-20 22:10:00,8.3,4.5,30.65,West,275,1.0,3.0,84,0.00,,,0.01,Wunderground v.1.15,2013-01-21 05:10:00,
2013-01-20 22:20:00,8.9,5.6,30.65,West,275,2.0,2.0,86,0.00,,,0.01,Wunderground v.1.15,2013-01-21 05:20:00,
2013-01-20 22:25:00,8.4,4.8,30.65,West,275,2.0,3.0,85,0.00,,,0.01,Wunderground v.1.15,2013-01-21 05:25:00,
2013-01-20 22:30:00,9.0,5.9,30.64,West,275,1.0,1.0,87,0.00,,,0.01,Wunderground v.1.15,2013-01-21 05:30:00,
2013-01-20 22:40:00,9.0,5.7,30.65,West,275,2.0,3.0,86,0.00,,,0.01,Wunderground v.1.15,2013-01-21 05:40:00,
2013-01-20 22:45:00,8.8,5.5,30.65,West,275,2.0,3.0,86,0.00,,,0.01,Wunderground v.1.15,2013-01-21 05:45:00,
2013-01-20 22:50:00,9.1,5.8,30.65,West,275,1.0,3.0,86,0.00,,,0.01,Wunderground v.1.15,2013-01-21 05:50:00,
2013-01-20 23:00:00,8.4,4.8,30.65,West,275,1.0,3.0,85,0.00,,,0.01,Wunderground v.1.15,2013-01-21 06:00:00,
2013-01-20 23:05:00,8.2,4.6,30.65,West,275,2.0,3.0,85,0.00,,,0.01,Wunderground v.1.15,2013-01-21 06:05:00,
2013-01-20 23:10:00,8.3,5.0,30.65,West,275,2.0,2.0,86,0.00,,,0.01,Wunderground v.1.15,2013-01-21 06:10:00,
2013-01-20 23:20:00,8.3,5.0,30.65,West,275,1.0,3.0,86,0.00,,,0.01,Wunderground v.1.15,2013-01-21 06:20:00,
2013-01-20 23:25:00,7.4,3.8,30.65,West,275,1.0,3.0,85,0.00,,,0.01,Wunderground v.1.15,2013-01-21 06:25:00,
2013-01-20 23:30:00,7.4,3.8,30.65,West,275,2.0,3.0,85,0.00,,,0.01,Wunderground v.1.15,2013-01-21 06:30:00,
2013-01-20 23:35:00,8.0,4.9,30.64,West,275,2.0,3.0,87,0.00,,,0.01,Wunderground v.1.15,2013-01-21 06:35:00,
2013-01-20 23:45:00,6.5,2.7,30.65,West,275,0.0,2.0,84,0.00,,,0.01,Wunderground v.1.15,2013-01-21 06:45:00,
2013-01-20 23:50:00,6.2,2.7,30.64,West,275,1.0,3.0,85,0.00,,,0.01,Wunderground v.1.15,2013-01-21 06:50:00,
2013-01-20 23:55:00,6.0,2.5,30.64,West,275,2.0,3.0,85,0.00,,,0.01,Wunderground v.1.15,2013-01-21 06:55:00,